createdAt,value
2019-05-20T00:00:58.384Z,13.37
2019-05-20T00:03:28.027Z,11.67
2019-05-20T00:05:57.726Z,12.10
2019-05-20T00:08:27.343Z,11.57
2019-05-20T00:10:56.950Z,11.90
2019-05-20T00:13:26.566Z,12.23
2019-05-20T00:15:56.230Z,12.90
2019-05-20T00:18:28.027Z,14.23
2019-05-20T00:20:57.679Z,11.13
2019-05-20T00:23:27.274Z,9.60
2019-05-20T00:25:56.891Z,10.50
2019-05-20T00:28:26.547Z,11.83
2019-05-20T00:30:56.155Z,10.83
2019-05-20T00:33:25.864Z,10.20
2019-05-20T00:35:55.415Z,10.40
2019-05-20T00:38:24.922Z,11.73
2019-05-20T00:40:54.730Z,9.77
2019-05-20T00:43:24.276Z,11.60
2019-05-20T00:45:53.843Z,11.60
2019-05-20T00:48:23.457Z,11.30
2019-05-20T00:50:53.019Z,9.70
2019-05-20T00:53:22.643Z,12.40
2019-05-20T00:55:52.250Z,10.90
2019-05-20T00:58:22.375Z,10.70
2019-05-20T01:00:52.034Z,10.13
2019-05-20T01:03:21.640Z,9.27
2019-05-20T01:05:51.360Z,11.40
2019-05-20T01:08:20.934Z,10.13
2019-05-20T01:10:50.676Z,10.93
2019-05-20T01:13:20.578Z,12.30
2019-05-20T01:15:50.302Z,9.87
2019-05-20T01:18:19.869Z,8.57
2019-05-20T01:20:50.226Z,10.80
2019-05-20T01:23:19.863Z,9.80
2019-05-20T01:25:49.617Z,12.00
2019-05-20T01:28:19.148Z,11.83
2019-05-20T01:30:48.792Z,12.13
2019-05-20T01:33:18.395Z,10.03
2019-05-20T01:35:48.101Z,11.63
2019-05-20T01:38:17.680Z,11.43
2019-05-20T01:40:47.444Z,11.23
2019-05-20T01:43:17.240Z,11.40
2019-05-20T01:45:47.083Z,11.57
2019-05-20T01:48:16.721Z,11.27
2019-05-20T01:50:46.321Z,12.90
2019-05-20T01:53:15.976Z,10.67
2019-05-20T01:55:45.686Z,10.60
2019-05-20T01:58:15.303Z,11.80
2019-05-20T02:00:45.073Z,12.53
2019-05-20T02:21:44.059Z,13.20
2019-05-20T02:24:13.596Z,13.60
2019-05-20T02:26:43.215Z,12.30
2019-05-20T02:29:12.895Z,16.43
2019-05-20T02:31:42.416Z,12.50
2019-05-20T02:34:12.144Z,13.37
2019-05-20T02:36:41.685Z,14.23
2019-05-20T02:39:11.464Z,17.03
2019-05-20T02:41:41.051Z,14.40
2019-05-20T02:44:10.665Z,19.30
2019-05-20T02:46:40.438Z,17.83
2019-05-20T02:49:10.008Z,18.20
2019-05-20T02:51:39.632Z,18.20
2019-05-20T02:54:09.219Z,17.67
2019-05-20T02:56:38.929Z,21.03
2019-05-20T02:59:09.075Z,21.23
2019-05-20T03:01:38.759Z,19.13
2019-05-20T03:04:11.997Z,19.77
2019-05-20T03:06:39.691Z,21.63
2019-05-20T03:09:12.216Z,21.47
2019-05-20T03:11:40.665Z,20.90
2019-05-20T03:14:10.302Z,26.13
2019-05-20T03:16:40.091Z,20.80
2019-05-20T03:19:09.844Z,20.40
2019-05-20T03:21:39.479Z,23.53
2019-05-20T03:24:09.123Z,21.57
2019-05-20T03:26:38.727Z,26.13
2019-05-20T03:29:08.242Z,24.67
2019-05-20T03:31:37.960Z,22.60
2019-05-20T03:34:07.679Z,27.30
2019-05-20T03:36:37.313Z,23.23
2019-05-20T03:39:07.360Z,24.47
2019-05-20T03:41:36.992Z,25.23
2019-05-20T03:44:06.573Z,25.63
2019-05-20T03:46:36.205Z,23.50
2019-05-20T03:49:05.744Z,35.50
2019-05-20T03:51:35.329Z,28.00
2019-05-20T03:54:04.968Z,30.87
2019-05-20T03:56:34.615Z,32.60
2019-05-20T03:59:04.249Z,33.03
2019-05-20T04:01:33.867Z,31.27
2019-05-20T04:04:03.432Z,33.30
2019-05-20T04:06:33.066Z,36.97
2019-05-20T04:09:02.830Z,34.37
2019-05-20T04:11:32.534Z,35.00
2019-05-20T04:14:02.053Z,35.80
2019-05-20T04:16:31.665Z,38.07
2019-05-20T04:19:01.214Z,42.47
2019-05-20T04:21:30.809Z,36.07
2019-05-20T04:24:01.402Z,33.77
2019-05-20T04:26:31.547Z,40.97
2019-05-20T04:29:01.250Z,59.57
2019-05-20T04:31:30.848Z,47.70
2019-05-20T04:34:00.641Z,42.97
2019-05-20T04:36:30.171Z,44.90
2019-05-20T04:38:59.833Z,45.33
2019-05-20T04:41:29.399Z,42.97
2019-05-20T04:43:59.014Z,51.53
2019-05-20T04:46:28.586Z,50.00
2019-05-20T04:48:58.292Z,52.30
2019-05-20T04:51:27.863Z,53.30
2019-05-20T04:53:57.478Z,56.33
2019-05-20T04:56:29.353Z,60.83
2019-05-20T04:58:58.524Z,50.23
2019-05-20T05:01:28.132Z,46.80
2019-05-20T05:03:57.844Z,42.90
2019-05-20T05:06:27.440Z,37.40
2019-05-20T05:08:57.012Z,44.40
2019-05-20T05:11:26.969Z,45.50
2019-05-20T05:13:56.614Z,39.23
2019-05-20T05:16:26.377Z,35.87
2019-05-20T05:18:55.971Z,45.53
2019-05-20T05:21:25.653Z,33.70
2019-05-20T05:26:30.070Z,29.03
2019-05-20T05:28:59.655Z,27.17
2019-05-20T05:31:29.243Z,34.67
2019-05-20T05:33:58.894Z,33.97
2019-05-20T05:36:28.559Z,34.03
2019-05-20T05:38:58.289Z,40.93
2019-05-20T05:41:27.840Z,37.70
2019-05-20T05:43:57.559Z,40.07
2019-05-20T05:46:27.211Z,41.57
2019-05-20T05:48:56.895Z,50.07
2019-05-20T05:51:26.564Z,49.23
2019-05-20T05:53:56.343Z,46.50
2019-05-20T05:56:26.023Z,47.83
2019-05-20T05:58:55.752Z,48.77
2019-05-20T06:01:25.368Z,44.10
2019-05-20T06:03:55.042Z,47.40
2019-05-20T06:06:24.645Z,55.80
2019-05-20T06:08:54.330Z,53.10
2019-05-20T06:11:23.931Z,47.93
2019-05-20T06:13:53.641Z,61.83
2019-05-20T06:16:36.001Z,57.13
2019-05-20T06:18:54.449Z,59.80
2019-05-20T06:21:24.028Z,53.63
2019-05-20T06:23:53.684Z,53.57
2019-05-20T06:26:23.383Z,54.10
2019-05-20T06:28:53.092Z,50.70
2019-05-20T06:31:22.668Z,57.57
2019-05-20T06:33:52.401Z,56.53
2019-05-20T06:36:26.992Z,59.10
2019-05-20T06:39:12.347Z,63.50
2019-05-20T06:41:42.394Z,58.53
2019-05-20T06:44:12.231Z,55.90
2019-05-20T06:46:41.945Z,59.67
2019-05-20T06:49:11.516Z,66.47
2019-05-20T06:51:41.315Z,63.13
2019-05-20T06:54:10.888Z,61.13
2019-05-20T06:56:40.697Z,82.43
2019-05-20T06:59:10.547Z,60.30
2019-05-20T07:01:40.112Z,60.97
2019-05-20T07:04:09.694Z,66.00
2019-05-20T07:06:46.725Z,62.67
2019-05-20T07:09:10.798Z,59.17
2019-05-20T07:11:40.583Z,66.50
2019-05-20T07:14:10.084Z,70.80
2019-05-20T07:19:15.075Z,67.30
2019-05-20T07:21:44.675Z,65.30
2019-05-20T07:24:14.267Z,61.90
2019-05-20T07:26:44.063Z,59.53
2019-05-20T07:29:13.778Z,60.27
2019-05-20T07:31:43.446Z,67.17
2019-05-20T07:34:13.042Z,56.03
2019-05-20T07:36:42.745Z,65.73
2019-05-20T07:39:12.250Z,62.97
2019-05-20T07:41:42.069Z,54.80
2019-05-20T07:44:11.727Z,68.47
2019-05-20T07:46:41.515Z,59.47
2019-05-20T07:49:11.673Z,59.63
2019-05-20T07:51:42.268Z,55.80
2019-05-20T07:54:12.897Z,58.93
2019-05-20T07:56:46.153Z,54.70
2019-05-20T07:59:18.344Z,59.00
2019-05-20T08:01:48.046Z,52.27
2019-05-20T08:04:17.760Z,52.90
2019-05-20T08:06:47.335Z,46.47
2019-05-20T08:09:16.951Z,50.90
2019-05-20T08:11:46.712Z,49.07
2019-05-20T08:14:16.404Z,45.87
2019-05-20T08:16:46.170Z,46.77
2019-05-20T08:19:15.874Z,50.50
2019-05-20T08:21:45.410Z,55.40
2019-05-20T08:24:14.972Z,49.23
2019-05-20T08:26:44.667Z,47.40
2019-05-20T08:29:14.406Z,50.03
2019-05-20T08:31:43.961Z,44.33
2019-05-20T08:34:13.588Z,48.20
2019-05-20T08:36:43.271Z,48.17
2019-05-20T08:39:12.864Z,53.83
2019-05-20T08:41:42.678Z,42.03
2019-05-20T08:44:12.240Z,45.53
2019-05-20T08:46:42.084Z,40.10
2019-05-20T08:49:11.916Z,45.50
2019-05-20T08:51:41.676Z,46.87
2019-05-20T08:54:11.362Z,39.80
2019-05-20T08:56:40.993Z,41.60
2019-05-20T08:59:10.757Z,40.20
2019-05-20T09:01:41.081Z,43.77
2019-05-20T09:04:10.809Z,42.17
2019-05-20T09:06:41.153Z,42.20
2019-05-20T09:09:12.331Z,41.67
2019-05-20T09:11:42.121Z,37.67
2019-05-20T09:14:11.725Z,37.97
2019-05-20T09:16:41.388Z,39.73
2019-05-20T09:19:11.087Z,38.53
2019-05-20T09:21:40.843Z,38.30
2019-05-20T09:24:10.475Z,41.57
2019-05-20T09:26:40.047Z,36.40
2019-05-20T09:29:11.441Z,38.57
2019-05-20T09:31:41.501Z,35.67
2019-05-20T09:34:11.332Z,34.73
2019-05-20T09:36:40.938Z,40.90
2019-05-20T09:39:10.575Z,33.63
2019-05-20T09:41:40.388Z,32.33
2019-05-20T09:44:10.035Z,43.90
2019-05-20T09:46:39.619Z,40.20
2019-05-20T09:49:09.248Z,34.97
2019-05-20T09:51:38.928Z,35.97
2019-05-20T09:54:08.723Z,35.60
2019-05-20T09:56:38.549Z,36.23
2019-05-20T09:59:08.236Z,38.57
2019-05-20T10:01:40.156Z,35.20
2019-05-20T10:04:09.095Z,34.17
2019-05-20T10:06:38.878Z,33.00
2019-05-20T10:09:08.760Z,33.33
2019-05-20T10:11:38.399Z,34.83
2019-05-20T10:14:08.132Z,34.87
2019-05-20T10:16:37.727Z,30.63
2019-05-20T10:19:07.433Z,33.00
2019-05-20T10:21:37.076Z,32.77
2019-05-20T10:24:06.744Z,31.13
2019-05-20T10:26:36.433Z,34.47
2019-05-20T10:29:06.269Z,32.57
2019-05-20T10:31:35.966Z,31.90
2019-05-20T10:34:07.405Z,30.80
2019-05-20T10:36:36.994Z,35.63
2019-05-20T10:39:08.265Z,29.37
2019-05-20T10:41:38.280Z,30.90
2019-05-20T10:44:08.137Z,28.40
2019-05-20T10:46:37.755Z,31.83
2019-05-20T10:49:07.738Z,32.40
2019-05-20T10:51:37.385Z,33.80
2019-05-20T10:54:07.092Z,29.87
2019-05-20T10:56:36.796Z,38.03
2019-05-20T10:59:06.385Z,36.43
2019-05-20T11:01:36.040Z,30.93
2019-05-20T11:04:05.724Z,37.20
2019-05-20T11:06:35.346Z,33.47
2019-05-20T11:09:14.168Z,36.90
2019-05-20T11:11:39.493Z,36.83
2019-05-20T11:14:10.312Z,32.00
2019-05-20T11:16:39.971Z,29.60
2019-05-20T11:19:09.650Z,32.27
2019-05-20T11:21:39.238Z,31.47
2019-05-20T11:24:08.938Z,33.77
2019-05-20T11:26:38.547Z,35.63
2019-05-20T11:29:08.448Z,42.23
2019-05-20T11:31:37.963Z,40.93
2019-05-20T11:34:07.614Z,37.30
2019-05-20T11:36:37.224Z,37.97
2019-05-20T11:39:07.822Z,33.20
2019-05-20T11:41:52.793Z,40.10
2019-05-20T11:44:11.916Z,40.63
2019-05-20T11:46:40.385Z,40.30
2019-05-20T11:49:09.956Z,41.43
2019-05-20T11:51:39.528Z,45.30
2019-05-20T11:54:09.177Z,43.47
2019-05-20T11:56:38.799Z,42.83
2019-05-20T11:59:08.591Z,41.27
2019-05-20T12:01:38.174Z,46.30
2019-05-20T12:04:07.808Z,46.00
2019-05-20T12:06:37.424Z,42.63
2019-05-20T12:09:08.155Z,47.00
2019-05-20T12:11:37.741Z,50.90
2019-05-20T12:14:07.420Z,49.30
2019-05-20T12:16:37.036Z,42.27
2019-05-20T12:19:06.650Z,50.67
2019-05-20T12:21:36.469Z,49.30
2019-05-20T12:24:06.051Z,49.40
2019-05-20T12:26:35.574Z,53.77
2019-05-20T12:29:05.269Z,50.23
2019-05-20T12:31:34.858Z,48.00
2019-05-20T12:34:04.680Z,48.53
2019-05-20T12:36:34.360Z,50.90
2019-05-20T12:39:05.638Z,46.80
2019-05-20T12:41:35.384Z,50.93
2019-05-20T12:44:12.191Z,44.00
2019-05-20T12:46:36.506Z,44.43
2019-05-20T12:49:06.354Z,41.97
2019-05-20T12:51:35.917Z,42.40
2019-05-20T12:54:05.805Z,35.60
2019-05-20T12:56:35.443Z,44.73
2019-05-20T12:59:05.351Z,39.20
2019-05-20T13:01:35.317Z,34.77
2019-05-20T13:04:05.066Z,36.03
2019-05-20T13:06:34.852Z,29.40
2019-05-20T13:09:05.388Z,31.07
2019-05-20T13:11:35.058Z,28.40
2019-05-20T13:14:04.707Z,36.57
2019-05-20T13:16:34.380Z,26.30
2019-05-20T13:19:04.036Z,27.30
2019-05-20T13:21:33.675Z,23.50
2019-05-20T13:24:03.317Z,26.90
2019-05-20T13:26:32.988Z,36.00
2019-05-20T13:29:02.711Z,28.70
2019-05-20T13:31:32.444Z,25.20
2019-05-20T13:34:02.178Z,20.70
2019-05-20T13:36:32.004Z,26.53
2019-05-20T13:39:01.568Z,26.20
2019-05-20T13:41:31.238Z,24.80
2019-05-20T13:44:01.230Z,33.67
2019-05-20T13:46:30.794Z,28.97
2019-05-20T13:49:00.526Z,38.30
2019-05-20T13:51:30.221Z,31.93
2019-05-20T13:53:59.904Z,28.13
2019-05-20T13:56:29.587Z,41.40
2019-05-20T13:58:59.361Z,24.23
2019-05-20T14:01:28.971Z,27.43
2019-05-20T14:03:58.512Z,30.73
2019-05-20T14:06:28.459Z,26.63
2019-05-20T14:08:58.022Z,31.50
2019-05-20T14:11:34.748Z,39.07
2019-05-20T14:13:58.904Z,21.63
2019-05-20T14:16:28.656Z,25.37
2019-05-20T14:18:58.256Z,25.70
2019-05-20T14:21:27.868Z,23.40
2019-05-20T14:23:57.630Z,23.27
2019-05-20T14:26:27.289Z,22.40
2019-05-20T14:28:56.901Z,23.23
2019-05-20T14:31:26.701Z,21.37
2019-05-20T14:33:56.294Z,18.93
2019-05-20T14:36:39.503Z,21.40
2019-05-20T14:38:57.223Z,23.43
2019-05-20T14:41:26.821Z,18.57
2019-05-20T14:43:56.385Z,19.57
2019-05-20T14:46:26.046Z,24.70
2019-05-20T14:48:55.706Z,22.33
2019-05-20T14:51:25.385Z,19.97
2019-05-20T14:53:55.013Z,18.27
2019-05-20T14:56:24.578Z,23.20
2019-05-20T14:58:55.738Z,20.50
2019-05-20T15:01:25.417Z,20.77
2019-05-20T15:03:55.096Z,21.83
2019-05-20T15:06:24.747Z,26.10
2019-05-20T15:08:54.545Z,29.70
2019-05-20T15:11:37.050Z,21.93
2019-05-20T15:13:55.400Z,19.73
2019-05-20T15:16:25.104Z,19.17
2019-05-20T15:18:54.734Z,19.97
2019-05-20T15:21:29.138Z,18.03
2019-05-20T15:23:55.531Z,20.17
2019-05-20T15:26:25.248Z,22.77
2019-05-20T15:28:55.021Z,21.23
2019-05-20T15:31:24.663Z,20.30
2019-05-20T15:33:54.268Z,23.20
2019-05-20T15:36:23.882Z,23.00
2019-05-20T15:38:53.530Z,23.97
2019-05-20T15:41:23.544Z,21.13
2019-05-20T15:43:53.102Z,23.77
2019-05-20T15:46:22.849Z,26.00
2019-05-20T15:48:52.533Z,35.60
2019-05-20T15:51:22.290Z,28.30
2019-05-20T15:53:51.800Z,25.23
2019-05-20T15:56:21.528Z,29.20
2019-05-20T15:58:51.370Z,26.20
2019-05-20T16:01:21.010Z,22.33
2019-05-20T16:03:51.614Z,20.93
2019-05-20T16:06:21.493Z,19.07
2019-05-20T16:08:51.067Z,21.63
2019-05-20T16:11:20.711Z,25.00
2019-05-20T16:13:50.580Z,25.80
2019-05-20T16:16:20.259Z,22.67
2019-05-20T16:18:49.908Z,27.93
2019-05-20T16:21:19.563Z,30.53
2019-05-20T16:23:49.180Z,26.17
2019-05-20T16:26:18.801Z,21.50
2019-05-20T16:28:48.524Z,23.53
2019-05-20T16:31:18.242Z,21.17
2019-05-20T16:33:47.970Z,21.73
2019-05-20T16:36:17.702Z,24.83
2019-05-20T16:38:47.239Z,27.70
2019-05-20T16:41:16.916Z,28.60
2019-05-20T16:43:46.662Z,30.43
2019-05-20T16:46:16.503Z,25.40
2019-05-20T16:48:46.083Z,23.67
2019-05-20T16:51:15.831Z,31.53
2019-05-20T16:53:45.432Z,29.40
2019-05-20T16:56:15.169Z,32.20
2019-05-20T16:58:44.862Z,25.30
2019-05-20T17:01:14.492Z,26.33
2019-05-20T17:03:44.175Z,28.80
2019-05-20T17:06:13.777Z,25.70
2019-05-20T17:08:43.350Z,28.57
2019-05-20T17:11:12.943Z,28.00
2019-05-20T17:13:42.834Z,22.53
2019-05-20T17:16:12.456Z,31.53
2019-05-20T17:18:42.293Z,24.70
2019-05-20T17:21:11.943Z,28.40
2019-05-20T17:23:41.644Z,29.20
2019-05-20T17:26:11.295Z,30.27
2019-05-20T17:28:41.033Z,29.60
2019-05-20T17:31:10.607Z,32.57
2019-05-20T17:33:40.550Z,29.60
2019-05-20T17:36:10.215Z,31.07
2019-05-20T17:38:39.778Z,29.17
2019-05-20T17:41:09.547Z,32.20
2019-05-20T17:43:39.264Z,38.77
2019-05-20T17:46:09.966Z,38.23
2019-05-20T17:48:39.451Z,45.30
2019-05-20T17:51:09.496Z,50.20
2019-05-20T17:53:39.040Z,34.90
2019-05-20T17:56:08.899Z,50.23
2019-05-20T17:58:38.767Z,45.17
2019-05-20T18:01:15.548Z,48.93
2019-05-20T18:03:39.832Z,40.57
2019-05-20T18:06:09.924Z,43.10
2019-05-20T18:08:43.570Z,50.63
2019-05-20T18:11:13.193Z,47.83
2019-05-20T18:13:43.123Z,45.70
2019-05-20T18:16:12.803Z,48.80
2019-05-20T18:18:42.421Z,54.57
2019-05-20T18:21:13.146Z,43.40
2019-05-20T18:23:43.124Z,50.10
2019-05-20T18:26:12.916Z,47.40
2019-05-20T18:28:42.882Z,50.53
2019-05-20T18:31:12.507Z,54.63
2019-05-20T18:33:42.047Z,49.07
2019-05-20T18:36:11.998Z,52.73
2019-05-20T18:38:41.582Z,53.50
2019-05-20T18:41:12.461Z,58.90
2019-05-20T18:44:08.312Z,65.60
2019-05-20T18:46:38.244Z,57.50
2019-05-20T18:49:07.946Z,55.77
2019-05-20T18:51:37.494Z,53.93
2019-05-20T18:54:07.118Z,51.63
2019-05-20T18:56:36.650Z,57.90
2019-05-20T18:59:08.718Z,53.70
2019-05-20T19:01:50.599Z,52.80
2019-05-20T19:04:09.652Z,52.20
2019-05-20T19:06:39.295Z,44.70
2019-05-20T19:09:09.500Z,46.00
2019-05-20T19:11:39.105Z,43.40
2019-05-20T19:14:08.907Z,41.97
2019-05-20T19:16:38.461Z,48.30
2019-05-20T19:19:08.206Z,47.57
2019-05-20T19:21:37.823Z,49.73
2019-05-20T19:24:07.359Z,50.07
2019-05-20T19:26:37.084Z,46.90
2019-05-20T19:29:06.929Z,47.20
2019-05-20T19:31:36.796Z,44.30
2019-05-20T19:34:06.371Z,47.00
2019-05-20T19:36:36.374Z,51.33
2019-05-20T19:39:07.840Z,47.23
2019-05-20T19:41:37.539Z,41.30
2019-05-20T19:44:07.342Z,42.70
2019-05-20T19:46:37.241Z,37.80
2019-05-20T19:49:06.966Z,38.10
2019-05-20T19:51:37.591Z,38.10
2019-05-20T19:54:07.817Z,38.53
2019-05-20T19:56:37.915Z,43.00
2019-05-20T19:59:07.803Z,34.13
2019-05-20T20:01:37.915Z,31.70
2019-05-20T20:04:07.686Z,35.97
2019-05-20T20:06:37.590Z,31.40
2019-05-20T20:09:07.823Z,30.80
2019-05-20T20:14:52.922Z,28.17
2019-05-20T20:17:22.663Z,36.47
2019-05-20T20:19:52.407Z,29.70
2019-05-20T20:22:22.176Z,28.90
2019-05-20T20:24:52.303Z,29.90
2019-05-20T20:27:21.940Z,30.63
2019-05-20T20:29:51.923Z,28.83
2019-05-20T20:32:38.020Z,29.70
2019-05-20T20:35:02.535Z,29.70
2019-05-20T20:37:32.086Z,30.57
2019-05-20T20:40:01.861Z,28.00
2019-05-20T20:42:31.655Z,27.57
2019-05-20T20:45:04.641Z,29.73
2019-05-20T20:47:41.898Z,30.57
2019-05-20T20:50:06.642Z,28.57
2019-05-20T20:52:36.455Z,27.73
2019-05-20T20:55:06.933Z,32.77
2019-05-20T20:57:38.533Z,26.10
2019-05-20T21:00:09.545Z,21.40
2019-05-20T21:02:52.310Z,14.20
2019-05-20T21:05:13.534Z,14.43
2019-05-20T21:07:43.572Z,11.70
2019-05-20T21:10:24.156Z,14.67
2019-05-20T21:12:53.741Z,9.90
2019-05-20T21:15:23.675Z,14.57
2019-05-20T21:17:53.409Z,16.80
2019-05-20T21:20:23.145Z,16.10
2019-05-20T21:22:52.858Z,18.73
2019-05-20T21:25:22.875Z,21.43
2019-05-20T21:27:54.936Z,28.37
2019-05-20T21:30:24.568Z,33.37
2019-05-20T21:33:08.391Z,33.50
2019-05-20T21:35:26.643Z,32.87
2019-05-20T21:37:56.354Z,36.70
2019-05-20T21:40:26.194Z,41.93
2019-05-20T21:42:56.829Z,35.20
2019-05-20T21:45:26.746Z,34.60
2019-05-20T21:47:57.990Z,34.33
2019-05-20T21:50:27.795Z,32.40
2019-05-20T21:52:57.622Z,33.70
2019-05-20T21:55:27.282Z,33.50
2019-05-20T21:57:57.286Z,28.97
2019-05-20T22:00:37.212Z,25.63
2019-05-20T22:03:06.992Z,29.50
2019-05-20T22:05:36.707Z,30.83
2019-05-20T22:08:06.463Z,29.60
2019-05-20T22:10:36.189Z,23.37
2019-05-20T22:13:05.826Z,27.57
2019-05-20T22:15:35.517Z,24.27
2019-05-20T22:18:05.113Z,24.33
2019-05-20T22:20:35.062Z,21.03
2019-05-20T22:23:41.391Z,23.10
2019-05-20T22:26:11.504Z,19.60
2019-05-20T22:28:41.176Z,23.40
2019-05-20T22:31:11.027Z,22.90
2019-05-20T22:33:42.555Z,25.83
2019-05-20T22:36:12.086Z,23.30
2019-05-20T22:38:41.879Z,21.97
2019-05-20T22:41:12.239Z,21.73
2019-05-20T22:43:41.916Z,24.90
2019-05-20T22:46:11.831Z,29.97
2019-05-20T22:48:41.636Z,28.50
2019-05-20T22:51:11.386Z,36.90
2019-05-20T22:53:41.017Z,37.70
2019-05-20T22:56:10.592Z,40.50
2019-05-20T22:58:40.445Z,46.23
2019-05-20T23:01:10.570Z,43.77
2019-05-20T23:03:40.295Z,56.50
2019-05-20T23:06:09.931Z,44.50
2019-05-20T23:08:39.595Z,45.80
2019-05-20T23:11:09.339Z,47.80
2019-05-20T23:13:39.130Z,47.50
2019-05-20T23:16:08.855Z,45.73
2019-05-20T23:18:38.703Z,41.90
2019-05-20T23:21:11.745Z,49.93
2019-05-20T23:23:41.798Z,41.50
2019-05-20T23:26:11.901Z,42.10
2019-05-20T23:28:47.201Z,39.40
2019-05-20T23:31:55.213Z,47.33
2019-05-20T23:34:24.892Z,37.50
2019-05-20T23:36:54.492Z,34.23
2019-05-20T23:39:24.176Z,37.90
2019-05-20T23:41:53.719Z,36.60
2019-05-20T23:44:23.459Z,35.33
2019-05-20T23:46:53.071Z,31.63
2019-05-20T23:49:22.714Z,30.63
2019-05-20T23:51:52.357Z,31.00
2019-05-20T23:54:22.118Z,24.93
2019-05-20T23:56:51.650Z,28.00
2019-05-20T23:59:21.329Z,18.00
